createdAt,value
2022-08-14T00:01:03.928Z,56.26
2022-08-14T00:03:37.512Z,56.65
2022-08-14T00:06:25.276Z,56.56
2022-08-14T00:08:53.971Z,56.59
2022-08-14T00:11:20.402Z,56.41
2022-08-14T00:13:52.983Z,56.79
2022-08-14T00:16:43.408Z,56.82
2022-08-14T00:19:19.300Z,57.09
2022-08-14T00:21:50.219Z,56.92
2022-08-14T00:24:28.479Z,57.11
2022-08-14T00:27:02.019Z,57.23
2022-08-14T00:29:39.930Z,57.79
2022-08-14T00:33:01.576Z,57.96
2022-08-14T00:34:56.208Z,57.54
2022-08-14T00:37:23.260Z,57.62
2022-08-14T00:39:51.212Z,57.46
2022-08-14T00:42:55.966Z,57.60
2022-08-14T00:45:12.148Z,57.66
2022-08-14T00:47:42.962Z,57.86
2022-08-14T00:50:17.673Z,57.62
2022-08-14T00:52:50.783Z,57.89
2022-08-14T00:55:18.791Z,57.40
2022-08-14T00:57:45.787Z,57.74
2022-08-14T01:00:34.294Z,57.56
2022-08-14T01:03:03.293Z,57.68
2022-08-14T01:05:41.697Z,58.13
2022-08-14T01:08:51.475Z,58.55
2022-08-14T01:11:18.855Z,58.45
2022-08-14T01:13:45.756Z,58.54
2022-08-14T01:16:22.594Z,58.93
2022-08-14T01:19:13.200Z,59.05
2022-08-14T01:21:46.773Z,59.19
2022-08-14T01:24:24.725Z,59.24
2022-08-14T01:27:00.298Z,59.59
2022-08-14T01:29:51.203Z,59.50
2022-08-14T01:32:22.952Z,59.56
2022-08-14T01:35:19.688Z,59.76
2022-08-14T01:37:54.606Z,59.49
2022-08-14T01:40:25.720Z,59.24
2022-08-14T01:43:00.076Z,59.42
2022-08-14T01:45:29.119Z,59.51
2022-08-14T01:48:03.254Z,59.75
2022-08-14T01:50:30.419Z,60.19
2022-08-14T01:53:00.471Z,60.26
2022-08-14T01:55:32.297Z,59.96
2022-08-14T01:58:19.045Z,59.99
2022-08-14T02:00:48.133Z,59.76
2022-08-14T02:03:15.952Z,59.82
2022-08-14T02:05:42.346Z,59.83
2022-08-14T02:08:10.486Z,60.49
2022-08-14T02:10:46.943Z,60.43
2022-08-14T02:13:16.226Z,60.32
2022-08-14T02:15:43.515Z,60.37
2022-08-14T02:18:10.522Z,60.43
2022-08-14T02:20:39.927Z,60.65
2022-08-14T02:23:08.361Z,60.76
2022-08-14T02:25:35.701Z,61.01
2022-08-14T02:28:25.655Z,61.33
2022-08-14T02:30:52.380Z,61.66
2022-08-14T02:33:19.639Z,61.50
2022-08-14T02:35:53.102Z,61.30
2022-08-14T02:38:30.557Z,61.54
2022-08-14T02:41:00.923Z,61.71
2022-08-14T02:43:36.437Z,62.04
2022-08-14T02:46:04.318Z,61.93
2022-08-14T02:49:02.946Z,62.17
2022-08-14T02:51:23.481Z,61.99
2022-08-14T02:53:51.853Z,61.90
2022-08-14T02:56:30.005Z,62.15
2022-08-14T02:59:08.359Z,62.17
2022-08-14T03:01:43.518Z,62.27
2022-08-14T03:04:10.715Z,62.55
2022-08-14T03:06:57.832Z,62.75
2022-08-14T03:09:25.060Z,62.63
2022-08-14T03:12:09.156Z,62.75
2022-08-14T03:14:38.228Z,63.04
2022-08-14T03:17:10.467Z,62.93
2022-08-14T03:19:37.170Z,62.62
2022-08-14T03:22:04.823Z,63.26
2022-08-14T03:24:36.663Z,63.35
2022-08-14T03:27:06.048Z,63.04
2022-08-14T03:29:33.326Z,63.33
2022-08-14T03:31:59.928Z,63.36
2022-08-14T03:34:52.729Z,63.49
2022-08-14T03:37:38.638Z,63.54
2022-08-14T03:40:01.053Z,63.62
2022-08-14T03:42:36.076Z,63.88
2022-08-14T03:45:18.536Z,63.49
2022-08-14T03:48:02.233Z,63.77
2022-08-14T03:50:30.869Z,63.99
2022-08-14T03:53:02.840Z,64.29
2022-08-14T03:55:30.928Z,64.36
2022-08-14T03:57:58.422Z,64.29
2022-08-14T04:00:43.072Z,64.20
2022-08-14T04:03:16.536Z,64.14
2022-08-14T04:05:48.745Z,64.12
2022-08-14T04:08:23.150Z,64.35
2022-08-14T04:10:57.602Z,64.54
2022-08-14T04:13:24.622Z,64.72
2022-08-14T04:16:01.880Z,65.00
2022-08-14T04:18:32.250Z,65.74
2022-08-14T04:21:01.216Z,65.59
2022-08-14T04:23:29.626Z,65.41
2022-08-14T04:26:04.108Z,65.45
2022-08-14T04:29:06.834Z,65.29
2022-08-14T04:31:24.749Z,65.34
2022-08-14T04:34:06.529Z,65.29
2022-08-14T04:36:54.421Z,65.41
2022-08-14T04:39:46.224Z,65.25
2022-08-14T04:42:32.104Z,65.11
2022-08-14T04:45:00.801Z,65.54
2022-08-14T04:47:46.683Z,65.76
2022-08-14T04:50:13.171Z,65.80
2022-08-14T04:52:40.673Z,66.27
2022-08-14T04:55:09.280Z,66.35
2022-08-14T04:57:35.873Z,66.22
2022-08-14T05:00:02.424Z,66.64
2022-08-14T05:02:29.011Z,66.26
2022-08-14T05:04:58.476Z,66.37
2022-08-14T05:07:46.705Z,66.47
2022-08-14T05:10:16.426Z,66.29
2022-08-14T05:13:24.338Z,66.42
2022-08-14T05:15:32.032Z,66.35
2022-08-14T05:18:16.884Z,66.47
2022-08-14T05:21:54.741Z,66.72
2022-08-14T05:23:37.430Z,66.79
2022-08-14T05:26:13.245Z,66.55
2022-08-14T05:28:46.276Z,66.56
2022-08-14T05:31:20.775Z,65.98
2022-08-14T05:33:54.947Z,63.39
2022-08-14T05:36:23.824Z,60.18
2022-08-14T05:38:50.656Z,59.27
2022-08-14T05:41:20.159Z,60.06
2022-08-14T05:43:48.924Z,62.42
2022-08-14T05:46:19.208Z,62.66
2022-08-14T05:48:57.347Z,60.67
2022-08-14T05:51:24.997Z,58.74
2022-08-14T05:54:01.591Z,59.49
2022-08-14T05:56:37.956Z,54.75
2022-08-14T05:59:05.616Z,53.08
2022-08-14T06:01:33.902Z,51.48
2022-08-14T06:04:00.397Z,53.43
2022-08-14T06:06:26.861Z,54.86
2022-08-14T06:08:53.263Z,56.77
2022-08-14T06:11:27.839Z,57.61
2022-08-14T06:13:57.525Z,57.77
2022-08-14T06:16:23.936Z,55.49
2022-08-14T06:18:52.518Z,51.31
2022-08-14T06:21:20.052Z,48.52
2022-08-14T06:23:48.929Z,46.87
2022-08-14T06:26:16.306Z,47.33
2022-08-14T06:28:47.323Z,47.92
2022-08-14T06:31:18.294Z,42.81
2022-08-14T06:35:10.372Z,38.11
2022-08-14T06:36:33.450Z,35.49
2022-08-14T06:39:00.106Z,33.63
2022-08-14T06:41:57.072Z,32.22
2022-08-14T06:44:13.190Z,32.17
2022-08-14T06:46:39.634Z,34.80
2022-08-14T06:49:06.372Z,36.61
2022-08-14T06:51:38.767Z,38.02
2022-08-14T06:54:10.991Z,43.04
2022-08-14T06:56:38.622Z,45.94
2022-08-14T06:59:05.753Z,48.28
2022-08-14T07:01:51.239Z,49.23
2022-08-14T07:04:41.985Z,50.19
2022-08-14T07:07:08.360Z,51.12
2022-08-14T07:09:43.786Z,52.12
2022-08-14T07:12:34.757Z,52.86
2022-08-14T07:15:06.273Z,53.10
2022-08-14T07:17:34.376Z,54.55
2022-08-14T07:20:03.580Z,53.40
2022-08-14T07:22:32.890Z,52.90
2022-08-14T07:25:16.882Z,53.91
2022-08-14T07:27:43.360Z,53.01
2022-08-14T07:30:34.496Z,53.60
2022-08-14T07:32:57.435Z,52.95
2022-08-14T07:35:23.980Z,49.89
2022-08-14T07:37:57.148Z,42.96
2022-08-14T07:40:27.493Z,38.64
2022-08-14T07:42:56.589Z,36.10
2022-08-14T07:45:23.479Z,35.08
2022-08-14T07:47:49.913Z,35.22
2022-08-14T07:50:20.051Z,35.54
2022-08-14T07:52:50.027Z,34.75
2022-08-14T07:55:21.025Z,34.48
2022-08-14T07:57:48.270Z,33.47
2022-08-14T08:00:31.354Z,33.36
2022-08-14T08:03:00.395Z,32.14
2022-08-14T08:05:28.054Z,32.47
2022-08-14T08:07:54.779Z,32.17
2022-08-14T08:11:01.342Z,31.89
2022-08-14T08:13:24.506Z,31.79
2022-08-14T08:15:54.261Z,31.21
2022-08-14T08:18:27.559Z,31.12
2022-08-14T08:20:59.491Z,30.37
2022-08-14T08:23:39.844Z,31.05
2022-08-14T08:26:07.819Z,31.27
2022-08-14T08:28:34.890Z,31.20
2022-08-14T08:31:05.851Z,30.86
2022-08-14T08:33:37.141Z,30.58
2022-08-14T08:36:07.925Z,30.80
2022-08-14T08:39:18.619Z,29.95
2022-08-14T08:41:21.037Z,30.21
2022-08-14T08:43:47.993Z,30.56
2022-08-14T08:46:24.020Z,30.24
2022-08-14T08:51:33.257Z,29.78
2022-08-14T08:54:09.845Z,29.60
2022-08-14T08:56:47.657Z,31.47
2022-08-14T08:59:20.427Z,29.67
2022-08-14T09:02:00.904Z,29.46
2022-08-14T09:04:34.556Z,29.14
2022-08-14T09:07:10.828Z,29.62
2022-08-14T09:09:58.742Z,29.23
2022-08-14T09:12:32.461Z,29.00
2022-08-14T09:15:11.696Z,29.55
2022-08-14T09:17:41.281Z,28.83
2022-08-14T09:20:11.364Z,28.48
2022-08-14T09:22:47.397Z,28.54
2022-08-14T09:25:15.649Z,29.25
2022-08-14T09:27:42.300Z,28.59
2022-08-14T09:30:30.998Z,28.86
2022-08-14T09:33:22.556Z,27.88
2022-08-14T09:36:14.021Z,28.44
2022-08-14T09:38:59.123Z,28.31
2022-08-14T09:42:20.352Z,27.14
2022-08-14T09:45:39.798Z,27.24
2022-08-14T09:48:16.448Z,27.77
2022-08-14T09:51:20.886Z,27.01
2022-08-14T09:54:17.693Z,26.28
2022-08-14T09:56:51.662Z,26.53
2022-08-14T09:59:25.508Z,25.63
2022-08-14T10:01:56.368Z,25.27
2022-08-14T10:04:33.704Z,25.46
2022-08-14T10:07:03.534Z,25.43
2022-08-14T10:09:34.671Z,26.06
2022-08-14T10:12:04.775Z,26.26
2022-08-14T10:14:35.055Z,24.97
2022-08-14T10:17:06.407Z,25.64
2022-08-14T10:19:36.450Z,23.87
2022-08-14T10:23:15.251Z,24.46
2022-08-14T10:24:55.196Z,24.76
2022-08-14T10:27:24.407Z,25.37
2022-08-14T10:29:53.379Z,24.18
2022-08-14T10:32:29.045Z,23.85
2022-08-14T10:35:14.459Z,24.33
2022-08-14T10:37:52.067Z,23.70
2022-08-14T10:40:38.711Z,23.31
2022-08-14T10:43:25.296Z,23.42
2022-08-14T10:46:21.265Z,23.74
2022-08-14T10:49:04.488Z,23.43
2022-08-14T10:51:36.065Z,23.33
2022-08-14T10:54:26.032Z,24.29
2022-08-14T10:56:57.760Z,23.63
2022-08-14T10:59:30.822Z,24.09
2022-08-14T11:02:02.146Z,22.99
2022-08-14T11:04:30.719Z,23.45
2022-08-14T11:06:58.144Z,22.37
2022-08-14T11:09:26.297Z,22.53
2022-08-14T11:12:34.903Z,22.31
2022-08-14T11:15:01.935Z,23.02
2022-08-14T11:17:31.726Z,22.36
2022-08-14T11:20:00.500Z,22.04
2022-08-14T11:23:03.307Z,22.01
2022-08-14T11:25:21.238Z,22.17
2022-08-14T11:27:49.097Z,21.50
2022-08-14T11:30:51.515Z,22.29
2022-08-14T11:33:23.081Z,22.45
2022-08-14T11:35:49.736Z,22.28
2022-08-14T11:38:20.260Z,21.59
2022-08-14T11:40:47.723Z,23.09
2022-08-14T11:43:15.018Z,23.72
2022-08-14T11:45:47.692Z,24.78
2022-08-14T11:49:03.432Z,24.50
2022-08-14T11:51:14.485Z,24.08
2022-08-14T11:53:43.552Z,24.88
2022-08-14T11:56:12.690Z,24.73
2022-08-14T11:58:40.258Z,24.75
2022-08-14T12:01:09.751Z,24.87
2022-08-14T12:03:52.073Z,23.49
2022-08-14T12:06:28.514Z,22.85
2022-08-14T12:09:02.317Z,24.61
2022-08-14T12:11:43.160Z,23.92
2022-08-14T12:14:13.412Z,23.28
2022-08-14T12:17:12.294Z,23.54
2022-08-14T12:19:45.556Z,23.93
2022-08-14T12:22:12.098Z,23.97
2022-08-14T12:24:46.721Z,22.88
2022-08-14T12:27:16.881Z,22.51
2022-08-14T12:29:53.584Z,23.37
2022-08-14T12:32:20.146Z,22.21
2022-08-14T12:34:54.336Z,22.08
2022-08-14T12:37:29.757Z,23.91
2022-08-14T12:39:57.138Z,22.73
2022-08-14T12:42:36.454Z,22.61
2022-08-14T12:45:08.600Z,21.61
2022-08-14T12:47:35.298Z,22.00
2022-08-14T12:50:02.341Z,22.29
2022-08-14T12:52:56.030Z,23.26
2022-08-14T12:55:32.552Z,22.34
2022-08-14T12:58:35.470Z,21.54
2022-08-14T13:01:16.689Z,21.87
2022-08-14T13:03:48.207Z,23.14
2022-08-14T13:06:19.219Z,22.01
2022-08-14T13:08:53.079Z,22.18
2022-08-14T13:11:23.892Z,22.92
2022-08-14T13:13:58.081Z,22.20
2022-08-14T13:16:37.969Z,20.43
2022-08-14T13:19:11.097Z,21.07
2022-08-14T13:22:04.866Z,21.63
2022-08-14T13:24:27.638Z,24.62
2022-08-14T13:26:56.852Z,21.62
2022-08-14T13:29:25.949Z,22.59
2022-08-14T13:31:58.273Z,22.82
2022-08-14T13:34:28.358Z,22.86
2022-08-14T13:37:03.762Z,23.47
2022-08-14T13:39:36.194Z,23.95
2022-08-14T13:42:08.387Z,24.30
2022-08-14T13:44:37.121Z,25.42
2022-08-14T13:47:09.361Z,26.14
2022-08-14T13:49:37.825Z,25.93
2022-08-14T13:52:48.226Z,26.20
2022-08-14T13:55:01.408Z,25.67
2022-08-14T13:57:30.704Z,26.64
2022-08-14T14:00:05.801Z,26.67
2022-08-14T14:02:36.079Z,27.46
2022-08-14T14:05:04.446Z,26.29
2022-08-14T14:07:33.901Z,27.46
2022-08-14T14:10:09.281Z,26.64
2022-08-14T14:12:41.447Z,26.69
2022-08-14T14:15:14.565Z,25.48
2022-08-14T14:17:44.755Z,25.16
2022-08-14T14:20:15.313Z,26.23
2022-08-14T14:23:02.897Z,25.56
2022-08-14T14:25:45.612Z,26.36
2022-08-14T14:28:24.369Z,25.45
2022-08-14T14:30:54.108Z,25.15
2022-08-14T14:33:45.116Z,25.60
2022-08-14T14:36:15.192Z,25.22
2022-08-14T14:38:52.675Z,25.60
2022-08-14T14:41:22.521Z,26.97
2022-08-14T14:43:51.466Z,27.11
2022-08-14T14:46:21.145Z,26.92
2022-08-14T14:48:54.693Z,27.50
2022-08-14T14:51:22.119Z,27.28
2022-08-14T14:53:49.274Z,25.81
2022-08-14T14:56:49.919Z,26.54
2022-08-14T14:59:02.647Z,27.39
2022-08-14T15:01:35.487Z,27.02
2022-08-14T15:04:07.759Z,25.63
2022-08-14T15:06:34.580Z,26.70
2022-08-14T15:09:01.871Z,26.08
2022-08-14T15:11:32.164Z,25.64
2022-08-14T15:14:00.087Z,25.87
2022-08-14T15:16:28.084Z,25.60
2022-08-14T15:18:54.581Z,25.96
2022-08-14T15:21:21.500Z,26.50
2022-08-14T15:23:50.477Z,25.59
2022-08-14T15:26:23.899Z,25.53
2022-08-14T15:29:03.121Z,25.68
2022-08-14T15:31:32.414Z,26.28
2022-08-14T15:34:44.706Z,26.65
2022-08-14T15:37:04.396Z,26.38
2022-08-14T15:39:34.048Z,26.62
2022-08-14T15:42:02.977Z,25.91
2022-08-14T15:44:34.189Z,26.65
2022-08-14T15:47:06.945Z,27.68
2022-08-14T15:49:35.145Z,27.48
2022-08-14T15:52:03.342Z,26.83
2022-08-14T15:54:31.257Z,26.98
2022-08-14T15:57:10.289Z,26.75
2022-08-14T15:59:57.246Z,26.66
2022-08-14T16:02:27.588Z,26.59
2022-08-14T16:04:55.129Z,26.23
2022-08-14T16:07:22.163Z,26.93
2022-08-14T16:10:18.332Z,27.56
2022-08-14T16:12:41.542Z,27.28
2022-08-14T16:15:13.678Z,27.74
2022-08-14T16:17:44.021Z,27.54
2022-08-14T16:20:11.781Z,26.68
2022-08-14T16:22:59.104Z,26.32
2022-08-14T16:25:34.271Z,26.47
2022-08-14T16:28:02.508Z,27.83
2022-08-14T16:30:31.269Z,28.30
2022-08-14T16:32:59.726Z,28.27
2022-08-14T16:35:43.501Z,28.38
2022-08-14T16:38:44.918Z,28.87
2022-08-14T16:41:22.073Z,28.44
2022-08-14T16:43:53.043Z,28.44
2022-08-14T16:46:21.995Z,29.33
2022-08-14T16:48:55.105Z,28.76
2022-08-14T16:51:25.277Z,29.39
2022-08-14T16:53:51.945Z,29.44
2022-08-14T16:56:25.391Z,30.01
2022-08-14T16:59:13.594Z,30.68
2022-08-14T17:01:44.044Z,31.27
2022-08-14T17:04:24.528Z,31.49
2022-08-14T17:06:56.360Z,31.79
2022-08-14T17:09:25.494Z,31.41
2022-08-14T17:12:07.590Z,31.58
2022-08-14T17:15:10.165Z,31.85
2022-08-14T17:17:40.580Z,31.93
2022-08-14T17:20:33.922Z,32.24
2022-08-14T17:22:58.506Z,33.07
2022-08-14T17:25:30.115Z,34.52
2022-08-14T17:28:52.188Z,34.69
2022-08-14T17:31:05.122Z,35.85
2022-08-14T17:33:40.930Z,36.31
2022-08-14T17:36:21.378Z,37.15
2022-08-14T17:39:11.837Z,36.98
2022-08-14T17:42:01.927Z,37.74
2022-08-14T17:44:34.341Z,38.59
2022-08-14T17:47:14.478Z,39.03
2022-08-14T17:49:51.929Z,40.03
2022-08-14T17:52:34.938Z,40.62
2022-08-14T17:55:05.683Z,41.07
2022-08-14T17:57:35.383Z,41.79
2022-08-14T18:00:11.764Z,40.73
2022-08-14T18:02:39.750Z,41.26
2022-08-14T18:05:17.941Z,41.20
2022-08-14T18:08:31.424Z,42.19
2022-08-14T18:10:55.218Z,42.98
2022-08-14T18:13:51.438Z,44.17
2022-08-14T18:16:20.581Z,43.89
2022-08-14T18:18:49.239Z,44.84
2022-08-14T18:21:23.864Z,44.75
2022-08-14T18:24:02.974Z,44.51
2022-08-14T18:26:37.275Z,43.64
2022-08-14T18:29:14.931Z,43.30
2022-08-14T18:31:45.157Z,42.61
2022-08-14T18:34:32.130Z,43.49
2022-08-14T18:37:09.622Z,43.65
2022-08-14T18:40:02.421Z,44.16
2022-08-14T18:42:33.242Z,44.61
2022-08-14T18:45:01.538Z,45.53
2022-08-14T18:47:32.722Z,46.26
2022-08-14T18:50:27.254Z,45.99
2022-08-14T18:53:06.993Z,46.70
2022-08-14T18:55:33.551Z,47.41
2022-08-14T18:58:00.717Z,46.96
2022-08-14T19:00:33.237Z,47.05
2022-08-14T19:03:04.119Z,46.92
2022-08-14T19:05:47.297Z,47.92
2022-08-14T19:08:25.007Z,48.39
2022-08-14T19:10:54.178Z,47.84
2022-08-14T19:13:47.872Z,48.42
2022-08-14T19:16:18.570Z,48.98
2022-08-14T19:19:00.094Z,49.08
2022-08-14T19:21:43.682Z,48.93
2022-08-14T19:24:29.286Z,49.06
2022-08-14T19:27:24.628Z,48.24
2022-08-14T19:30:19.224Z,48.89
2022-08-14T19:32:50.593Z,49.21
2022-08-14T19:35:24.790Z,49.89
2022-08-14T19:38:32.778Z,49.98
2022-08-14T19:40:58.824Z,50.60
2022-08-14T19:43:55.910Z,50.78
2022-08-14T19:46:38.979Z,50.69
2022-08-14T19:49:02.423Z,50.58
2022-08-14T19:51:32.887Z,51.14
2022-08-14T19:54:13.501Z,51.65
2022-08-14T19:56:45.031Z,51.97
2022-08-14T19:59:18.317Z,51.79
2022-08-14T20:01:49.652Z,52.09
2022-08-14T20:04:47.595Z,52.04
2022-08-14T20:07:59.403Z,51.60
2022-08-14T20:11:04.791Z,51.93
2022-08-14T20:13:29.341Z,52.48
2022-08-14T20:16:06.550Z,52.86
2022-08-14T20:18:50.742Z,53.29
2022-08-14T20:21:18.725Z,53.33
2022-08-14T20:23:48.270Z,53.70
2022-08-14T20:26:31.712Z,53.54
2022-08-14T20:29:04.419Z,54.16
2022-08-14T20:31:37.856Z,54.17
2022-08-14T20:34:24.942Z,54.21
2022-08-14T20:37:22.007Z,53.94
2022-08-14T20:39:54.661Z,54.44
2022-08-14T20:42:43.494Z,54.64
2022-08-14T20:45:21.419Z,54.77
2022-08-14T20:48:01.575Z,54.68
2022-08-14T20:50:30.067Z,55.35
2022-08-14T20:53:05.894Z,55.21
2022-08-14T20:55:41.773Z,55.02
2022-08-14T20:58:38.735Z,55.50
2022-08-14T21:01:33.082Z,55.60
2022-08-14T21:04:02.439Z,56.04
2022-08-14T21:07:23.318Z,55.58
2022-08-14T21:10:05.202Z,56.19
2022-08-14T21:12:33.688Z,56.06
2022-08-14T21:15:00.676Z,56.17
2022-08-14T21:17:27.431Z,56.61
2022-08-14T21:19:53.985Z,56.43
2022-08-14T21:22:20.624Z,56.66
2022-08-14T21:24:48.480Z,56.85
2022-08-14T21:27:20.323Z,57.49
2022-08-14T21:29:53.718Z,57.93
2022-08-14T21:32:50.557Z,58.08
2022-08-14T21:35:24.770Z,57.83
2022-08-14T21:37:52.694Z,57.96
2022-08-14T21:40:40.540Z,57.77
2022-08-14T21:43:17.465Z,57.52
2022-08-14T21:45:53.852Z,57.73
2022-08-14T21:48:24.995Z,57.66
2022-08-14T21:51:01.204Z,58.55
2022-08-14T21:53:31.549Z,58.42
2022-08-14T21:55:58.452Z,58.43
2022-08-14T21:58:53.806Z,58.70
2022-08-14T22:01:15.746Z,58.87
2022-08-14T22:03:46.388Z,59.17
2022-08-14T22:06:17.367Z,59.21
2022-08-14T22:08:46.563Z,59.26
2022-08-14T22:11:21.056Z,58.90
2022-08-14T22:13:48.942Z,59.51
2022-08-14T22:17:01.745Z,59.70
2022-08-14T22:19:05.165Z,59.47
2022-08-14T22:21:38.082Z,59.68
2022-08-14T22:24:12.149Z,60.32
2022-08-14T22:27:01.960Z,60.05
2022-08-14T22:29:28.552Z,59.80
2022-08-14T22:31:55.804Z,60.18
2022-08-14T22:34:22.706Z,59.58
2022-08-14T22:36:50.717Z,59.62
2022-08-14T22:40:17.143Z,60.21
2022-08-14T22:42:21.282Z,59.88
2022-08-14T22:44:49.939Z,59.88
2022-08-14T22:47:16.381Z,60.40
2022-08-14T22:50:29.007Z,60.62
2022-08-14T22:52:32.977Z,59.84
2022-08-14T22:55:00.443Z,60.45
2022-08-14T22:57:37.297Z,60.73
2022-08-14T23:00:25.516Z,60.83
2022-08-14T23:03:00.100Z,60.86
2022-08-14T23:05:39.619Z,61.21
2022-08-14T23:08:56.406Z,61.28
2022-08-14T23:10:58.601Z,61.07
2022-08-14T23:13:26.321Z,61.04
2022-08-14T23:15:57.779Z,61.04
2022-08-14T23:18:29.529Z,61.21
2022-08-14T23:20:56.775Z,60.82
2022-08-14T23:23:23.496Z,61.58
2022-08-14T23:25:59.984Z,61.44
2022-08-14T23:28:34.641Z,61.64
2022-08-14T23:31:34.716Z,61.19
2022-08-14T23:34:06.559Z,61.30
2022-08-14T23:36:38.110Z,61.55
2022-08-14T23:39:32.705Z,61.92
2022-08-14T23:42:08.318Z,62.67
2022-08-14T23:44:37.530Z,62.87
2022-08-14T23:47:11.746Z,63.24
2022-08-14T23:50:03.585Z,63.12
2022-08-14T23:52:55.861Z,63.11
2022-08-14T23:55:28.182Z,62.81
2022-08-14T23:57:57.860Z,63.08
